Time;durP1;ratioP1;P1;durP2;ratioP2;P2;SDS_P1;SDS_P2;PMS_P1;PMS_P2;Temp;Humidity;BMP_temperature;BMP_pressure;BME280_temperature;BME280_humidity;BME280_pressure;Samples;Min_cycle;Max_cycle;Signal;HPM_P1;HPM_P2
2023/01/26 00:01:29;;;;;;;;;;;;;;;;;;6232540;22;20322;-87
2023/01/26 00:03:54;;;;;;;;;;;;;;;;;;6260451;22;20422;-87
2023/01/26 00:06:20;;;;;;;;;;;;;;;;;;6261520;22;19925;-87
2023/01/26 00:08:46;;;;;;;;;;;;;;;;;;6260659;22;19924;-87
2023/01/26 00:11:12;;;;;;;;;;;;;;;;;;6260137;22;20332;-87
2023/01/26 00:13:38;;;;;;;;;;;;;;;;;;6265095;22;20277;-87
2023/01/26 00:16:04;;;;;;;;;;;;;;;;;;6239244;22;19944;-87
2023/01/26 00:18:33;;;;;;;;;;;;;;;;;;6263844;22;19926;-85
2023/01/26 00:20:59;;;;;;;;;;;;;;;;;;6261802;22;19966;-86
2023/01/26 00:23:25;;;;;;;;;;;;;;;;;;6256566;22;19915;-87
2023/01/26 00:25:51;;;;;;;;;;;;;;;;;;6235735;22;20332;-86
2023/01/26 00:28:17;;;;;;;;;;;;;;;;;;6231324;22;19918;-87
2023/01/26 00:30:43;;;;;;;;;;;;;;;;;;6236933;22;20000;-87
2023/01/26 00:33:09;;;;;;;;;;;;;;;;;;6234748;22;20497;-86
2023/01/26 00:35:35;;;;;;;;;;;;;;;;;;6240221;22;19923;-87
2023/01/26 00:38:01;;;;;;;;;;;;;;;;;;6238812;22;19926;-86
2023/01/26 00:40:27;;;;;;;;;;;;;;;;;;6261373;22;19918;-87
2023/01/26 00:42:53;;;;;;;;;;;;;;;;;;6264670;22;20062;-86
2023/01/26 00:45:19;;;;;;;;;;;;;;;;;;6258700;22;20347;-87
2023/01/26 00:47:45;;;;;;;;;;;;;;;;;;6262095;22;19972;-87
2023/01/26 00:50:11;;;;;;;;;;;;;;;;;;6234702;22;19919;-87
2023/01/26 00:52:37;;;;;;;;;;;;;;;;;;6237992;22;20331;-87
2023/01/26 00:55:03;;;;;;;;;;;;;;;;;;6239911;22;19925;-87
2023/01/26 00:57:29;;;;;;;;;;;;;;;;;;6235901;22;19965;-87
2023/01/26 00:59:55;;;;;;;;;;;;;;;;;;6263764;22;19972;-87
2023/01/26 01:02:21;;;;;;;;;;;;;;;;;;6239412;22;19919;-87
2023/01/26 01:04:46;;;;;;;;;;;;;;;;;;6264724;22;19972;-87
2023/01/26 01:07:12;;;;;;;;;;;;;;;;;;6262891;22;20243;-87
2023/01/26 01:09:38;;;;;;;;;;;;;;;;;;6239380;22;19923;-87
2023/01/26 01:12:04;;;;;;;;;;;;;;;;;;6267037;22;19922;-87
2023/01/26 01:14:33;;;;;;;;;;;;;;;;;;6261393;22;19919;-86
2023/01/26 01:16:59;;;;;;;;;;;;;;;;;;6236828;22;20389;-85
2023/01/26 01:19:26;;;;;;;;;;;;;;;;;;6258853;22;20427;-86
2023/01/26 01:21:52;;;;;;;;;;;;;;;;;;6236871;22;19919;-86
2023/01/26 01:24:18;;;;;;;;;;;;;;;;;;6259614;22;20276;-86
2023/01/26 01:26:44;;;;;;;;;;;;;;;;;;6266663;22;20300;-87
2023/01/26 01:29:09;;;;;;;;;;;;;;;;;;6234330;22;20251;-87
2023/01/26 01:31:35;;;;;;;;;;;;;;;;;;6241702;22;19919;-87
2023/01/26 01:34:01;;;;;;;;;;;;;;;;;;6264714;22;20406;-87
2023/01/26 01:36:28;;;;;;;;;;;;;;;;;;6235418;22;19923;-86
2023/01/26 01:38:54;;;;;;;;;;;;;;;;;;6237005;22;19923;-87
2023/01/26 01:41:20;;;;;;;;;;;;;;;;;;6258073;22;19919;-86
2023/01/26 01:43:46;;;;;;;;;;;;;;;;;;6237462;22;20335;-87
2023/01/26 01:46:12;;;;;;;;;;;;;;;;;;6235234;22;19969;-86
2023/01/26 01:48:38;;;;;;;;;;;;;;;;;;6260153;22;19933;-87
2023/01/26 01:51:04;;;;;;;;;;;;;;;;;;6238105;22;20518;-86
2023/01/26 01:53:30;;;;;;;;;;;;;;;;;;6234815;22;19990;-87
2023/01/26 01:55:55;;;;;;;;;;;;;;;;;;6263139;22;20017;-87
2023/01/26 01:58:21;;;;;;;;;;;;;;;;;;6234639;22;19946;-87
2023/01/26 02:00:47;;;;;;;;;;;;;;;;;;6237508;22;19969;-87
2023/01/26 02:03:13;;;;;;;;;;;;;;;;;;6257040;22;19919;-87
2023/01/26 02:05:39;;;;;;;;;;;;;;;;;;6260556;22;19919;-87
2023/01/26 02:08:08;;;;;;;;;;;;;;;;;;6237563;22;19925;-87
2023/01/26 02:10:34;;;;;;;;;;;;;;;;;;6266520;22;19933;-86
2023/01/26 02:13:00;;;;;;;;;;;;;;;;;;6265595;22;19934;-86
2023/01/26 02:15:26;;;;;;;;;;;;;;;;;;6264967;22;20150;-85
2023/01/26 02:17:52;;;;;;;;;;;;;;;;;;6235806;22;19919;-87
2023/01/26 02:20:18;;;;;;;;;;;;;;;;;;6257607;22;19994;-86
2023/01/26 02:22:44;;;;;;;;;;;;;;;;;;6260924;22;19923;-86
2023/01/26 02:25:10;;;;;;;;;;;;;;;;;;6256479;22;19919;-87
2023/01/26 02:27:36;;;;;;;;;;;;;;;;;;6260660;22;19946;-87
2023/01/26 02:30:02;;;;;;;;;;;;;;;;;;6235654;22;19923;-87
2023/01/26 02:32:28;;;;;;;;;;;;;;;;;;6237176;22;19922;-87
2023/01/26 02:34:54;;;;;;;;;;;;;;;;;;6241614;22;20562;-87
2023/01/26 02:37:20;;;;;;;;;;;;;;;;;;6239279;22;19919;-88
2023/01/26 02:39:46;;;;;;;;;;;;;;;;;;6291740;22;19926;-87
2023/01/26 02:44:56;;;;;;;;;;;;;;;;;;6264753;22;19919;-87
2023/01/26 02:47:22;;;;;;;;;;;;;;;;;;6260272;22;20308;-87
2023/01/26 02:49:51;;;;;;;;;;;;;;;;;;6239109;22;19929;-87
2023/01/26 02:52:17;;;;;;;;;;;;;;;;;;6239000;22;20240;-86
2023/01/26 02:55:44;;;;;;;;;;;;;;;;;;6239942;22;19925;-86
2023/01/26 02:57:39;;;;;;;;;;;;;;;;;;6242312;22;19929;-86
2023/01/26 03:00:08;;;;;;;;;;;;;;;;;;6266005;22;20358;-86
2023/01/26 03:02:34;;;;;;;;;;;;;;;;;;6267310;22;20233;-86
2023/01/26 03:05:00;;;;;;;;;;;;;;;;;;6238839;22;19922;-86
2023/01/26 03:07:26;;;;;;;;;;;;;;;;;;6233272;22;20778;-86
2023/01/26 03:09:52;;;;;;;;;;;;;;;;;;6265182;22;19941;-86
2023/01/26 03:12:18;;;;;;;;;;;;;;;;;;6236649;22;19994;-85
2023/01/26 03:14:44;;;;;;;;;;;;;;;;;;6242329;22;20373;-86
2023/01/26 03:17:10;;;;;;;;;;;;;;;;;;6236780;22;19963;-86
2023/01/26 03:27:50;;;;;;;;;;;;;;;;;;6260966;22;20037;-86
2023/01/26 03:30:16;;;;;;;;;;;;;;;;;;6259807;22;19997;-85
2023/01/26 03:32:42;;;;;;;;;;;;;;;;;;6237878;22;19922;-86
2023/01/26 03:35:13;;;;;;;;;;;;;;;;;;6262157;22;19923;-86
2023/01/26 03:37:42;;;;;;;;;;;;;;;;;;6264675;22;19994;-86
2023/01/26 03:56:37;;;;;;;;;;;;;;;;;;6262554;22;20294;-86
2023/01/26 03:59:10;;;;;;;;;;;;;;;;;;6236051;22;20344;-87
2023/01/26 04:01:36;;;;;;;;;;;;;;;;;;6262358;22;19980;-87
2023/01/26 04:09:35;;;;;;;;;;;;;;;;;;6262521;22;19926;-87
2023/01/26 04:12:01;;;;;;;;;;;;;;;;;;6264561;22;19915;-87
2023/01/26 04:22:44;;;;;;;;;;;;;;;;;;6265569;22;20250;-86
2023/01/26 04:25:11;;;;;;;;;;;;;;;;;;6262214;22;19923;-85
2023/01/26 04:27:37;;;;;;;;;;;;;;;;;;6264691;22;19918;-86
2023/01/26 04:30:02;;;;;;;;;;;;;;;;;;6236229;22;20243;-86
2023/01/26 04:32:28;;;;;;;;;;;;;;;;;;6263052;22;19943;-86
2023/01/26 04:34:54;;;;;;;;;;;;;;;;;;6268093;22;19919;-86
2023/01/26 04:37:20;;;;;;;;;;;;;;;;;;6239617;22;20005;-87
2023/01/26 04:39:46;;;;;;;;;;;;;;;;;;6241044;22;19919;-86
2023/01/26 04:42:12;;;;;;;;;;;;;;;;;;6267035;22;19922;-86
2023/01/26 04:44:38;;;;;;;;;;;;;;;;;;6269465;22;19915;-87
2023/01/26 04:47:04;;;;;;;;;;;;;;;;;;6265242;22;19923;-87
2023/01/26 04:49:30;;;;;;;;;;;;;;;;;;6261562;22;19923;-87
2023/01/26 04:51:56;;;;;;;;;;;;;;;;;;6241499;22;19985;-87
2023/01/26 04:54:22;;;;;;;;;;;;;;;;;;6237684;22;19919;-87
2023/01/26 04:56:48;;;;;;;;;;;;;;;;;;6242647;22;19986;-87
2023/01/26 04:59:14;;;;;;;;;;;;;;;;;;6239743;22;19923;-87
2023/01/26 05:01:40;;;;;;;;;;;;;;;;;;6263798;22;19950;-88
2023/01/26 05:04:06;;;;;;;;;;;;;;;;;;6236935;22;19919;-85
2023/01/26 05:06:32;;;;;;;;;;;;;;;;;;6265141;22;19919;-87
2023/01/26 05:08:58;;;;;;;;;;;;;;;;;;6268210;22;20346;-86
2023/01/26 05:11:24;;;;;;;;;;;;;;;;;;6232268;22;20050;-87
2023/01/26 05:13:50;;;;;;;;;;;;;;;;;;6254328;22;19915;-87
2023/01/26 05:16:16;;;;;;;;;;;;;;;;;;6239856;22;20393;-87
2023/01/26 05:18:41;;;;;;;;;;;;;;;;;;6270800;22;19915;-86
2023/01/26 05:21:07;;;;;;;;;;;;;;;;;;6266917;22;19919;-85
2023/01/26 05:23:33;;;;;;;;;;;;;;;;;;6237300;22;19919;-86
2023/01/26 05:25:59;;;;;;;;;;;;;;;;;;6264834;22;19919;-86
2023/01/26 05:28:25;;;;;;;;;;;;;;;;;;6236349;22;20349;-87
2023/01/26 05:30:51;;;;;;;;;;;;;;;;;;6239693;22;19923;-86
2023/01/26 05:33:20;;;;;;;;;;;;;;;;;;6260558;22;19937;-86
2023/01/26 05:35:46;;;;;;;;;;;;;;;;;;6264167;22;20725;-87
2023/01/26 05:38:12;;;;;;;;;;;;;;;;;;6263626;22;19919;-87
2023/01/26 05:40:38;;;;;;;;;;;;;;;;;;6264578;22;20491;-87
2023/01/26 05:43:04;;;;;;;;;;;;;;;;;;6238911;22;19923;-87
2023/01/26 05:45:30;;;;;;;;;;;;;;;;;;6238260;22;19926;-87
2023/01/26 05:47:56;;;;;;;;;;;;;;;;;;6241185;22;19919;-88
2023/01/26 05:50:22;;;;;;;;;;;;;;;;;;6264785;22;19922;-87
2023/01/26 05:52:48;;;;;;;;;;;;;;;;;;6237172;22;19918;-87
2023/01/26 05:55:14;;;;;;;;;;;;;;;;;;6263493;22;20656;-87
2023/01/26 05:57:40;;;;;;;;;;;;;;;;;;6265268;22;19925;-87
2023/01/26 06:00:06;;;;;;;;;;;;;;;;;;6235926;22;20319;-87
2023/01/26 06:02:32;;;;;;;;;;;;;;;;;;6238401;22;19980;-87
2023/01/26 06:04:58;;;;;;;;;;;;;;;;;;6263138;22;19925;-87
2023/01/26 06:07:25;;;;;;;;;;;;;;;;;;6238629;22;19957;-85
2023/01/26 06:09:51;;;;;;;;;;;;;;;;;;6265773;22;20244;-86
2023/01/26 06:12:17;;;;;;;;;;;;;;;;;;6241751;22;19922;-87
2023/01/26 06:14:43;;;;;;;;;;;;;;;;;;6240990;22;19960;-87
2023/01/26 06:17:09;;;;;;;;;;;;;;;;;;6261937;22;19915;-87
2023/01/26 06:19:35;;;;;;;;;;;;;;;;;;6265306;22;19923;-87
2023/01/26 06:22:01;;;;;;;;;;;;;;;;;;6241449;22;19922;-87
2023/01/26 06:24:27;;;;;;;;;;;;;;;;;;6261176;22;19994;-87
2023/01/26 06:26:53;;;;;;;;;;;;;;;;;;6235127;22;20339;-87
2023/01/26 06:29:19;;;;;;;;;;;;;;;;;;6232715;22;20717;-85
2023/01/26 06:31:45;;;;;;;;;;;;;;;;;;6293226;22;19992;-86
2023/01/26 06:34:11;;;;;;;;;;;;;;;;;;6263612;22;19922;-87
2023/01/26 06:36:37;;;;;;;;;;;;;;;;;;6266193;22;20342;-86
2023/01/26 06:39:02;;;;;;;;;;;;;;;;;;6244505;22;20328;-86
2023/01/26 06:41:29;;;;;;;;;;;;;;;;;;6239083;22;20340;-86
2023/01/26 06:43:54;;;;;;;;;;;;;;;;;;6265832;22;19927;-87
2023/01/26 06:46:23;;;;;;;;;;;;;;;;;;6239470;22;19938;-87
2023/01/26 06:48:49;;;;;;;;;;;;;;;;;;6254222;22;20316;-88
2023/01/26 06:51:15;;;;;;;;;;;;;;;;;;6264094;22;19942;-87
2023/01/26 06:53:41;;;;;;;;;;;;;;;;;;6269329;22;19925;-87
2023/01/26 06:56:07;;;;;;;;;;;;;;;;;;6267120;22;19918;-87
2023/01/26 06:58:33;;;;;;;;;;;;;;;;;;6244665;22;19964;-88
2023/01/26 07:00:59;;;;;;;;;;;;;;;;;;6244364;22;19915;-88
2023/01/26 07:03:25;;;;;;;;;;;;;;;;;;6240386;22;19926;-88
2023/01/26 07:05:51;;;;;;;;;;;;;;;;;;6245134;22;20340;-88
2023/01/26 07:08:17;;;;;;;;;;;;;;;;;;6241505;22;19919;-88
2023/01/26 07:10:43;;;;;;;;;;;;;;;;;;6242401;22;19922;-88
2023/01/26 07:13:09;;;;;;;;;;;;;;;;;;6241158;22;19941;-88
2023/01/26 07:15:35;;;;;;;;;;;;;;;;;;6271609;22;19915;-87
2023/01/26 07:18:04;;;;;;;;;;;;;;;;;;6269548;22;19951;-88
2023/01/26 07:20:30;;;;;;;;;;;;;;;;;;6240191;22;19919;-88
2023/01/26 07:22:56;;;;;;;;;;;;;;;;;;6245881;22;19929;-89
2023/01/26 07:25:22;;;;;;;;;;;;;;;;;;6242799;22;19927;-87
2023/01/26 07:27:48;;;;;;;;;;;;;;;;;;6271611;22;19915;-87
2023/01/26 07:30:14;;;;;;;;;;;;;;;;;;6243279;22;19972;-87
2023/01/26 07:32:40;;;;;;;;;;;;;;;;;;6242478;22;20335;-88
2023/01/26 07:35:06;;;;;;;;;;;;;;;;;;6243906;22;20019;-87
2023/01/26 07:37:32;;;;;;;;;;;;;;;;;;6245173;22;19982;-88
2023/01/26 07:39:58;;;;;;;;;;;;;;;;;;6270086;22;19949;-88
2023/01/26 07:42:24;;;;;;;;;;;;;;;;;;6243475;22;19922;-88
2023/01/26 07:44:50;;;;;;;;;;;;;;;;;;6267447;22;19925;-87
2023/01/26 07:47:18;;;;;;;;;;;;;;;;;;6242633;22;19922;-87
2023/01/26 07:49:45;;;;;;;;;;;;;;;;;;6244523;22;19984;-87
2023/01/26 07:52:11;;;;;;;;;;;;;;;;;;6240971;22;20334;-87
2023/01/26 07:54:38;;;;;;;;;;;;;;;;;;6242905;22;19919;-86
2023/01/26 07:57:07;;;;;;;;;;;;;;;;;;6243423;22;20706;-87
2023/01/26 07:59:33;;;;;;;;;;;;;;;;;;6242331;22;19919;-88
2023/01/26 08:01:58;;;;;;;;;;;;;;;;;;6268314;22;19925;-88
2023/01/26 08:04:24;;;;;;;;;;;;;;;;;;6241673;22;19923;-88
2023/01/26 08:06:50;;;;;;;;;;;;;;;;;;6241422;22;20346;-88
2023/01/26 08:09:16;;;;;;;;;;;;;;;;;;6265224;22;20398;-87
2023/01/26 08:11:42;;;;;;;;;;;;;;;;;;6243771;22;19942;-88
2023/01/26 08:14:08;;;;;;;;;;;;;;;;;;6239596;22;19964;-87
2023/01/26 08:16:34;;;;;;;;;;;;;;;;;;6243391;22;19956;-88
2023/01/26 08:19:01;;;;;;;;;;;;;;;;;;6242140;22;19946;-88
2023/01/26 08:21:27;;;;;;;;;;;;;;;;;;6240060;22;19997;-87
2023/01/26 08:23:54;;;;;;;;;;;;;;;;;;6247176;22;19926;-87
2023/01/26 08:26:20;;;;;;;;;;;;;;;;;;6242215;22;19993;-87
2023/01/26 08:28:46;;;;;;;;;;;;;;;;;;6271170;22;19960;-88
2023/01/26 08:31:12;;;;;;;;;;;;;;;;;;6243441;22;20299;-87
2023/01/26 08:33:38;;;;;;;;;;;;;;;;;;6272091;22;19953;-88
2023/01/26 08:36:04;;;;;;;;;;;;;;;;;;6272917;22;19927;-89
2023/01/26 08:38:30;;;;;;;;;;;;;;;;;;6269874;22;20371;-89
2023/01/26 08:40:56;;;;;;;;;;;;;;;;;;6270974;22;20354;-87
2023/01/26 08:43:22;;;;;;;;;;;;;;;;;;6270794;22;19919;-87
2023/01/26 08:45:48;;;;;;;;;;;;;;;;;;6246382;22;19986;-87
2023/01/26 08:48:14;;;;;;;;;;;;;;;;;;6268520;22;19923;-87
2023/01/26 08:50:40;;;;;;;;;;;;;;;;;;6269577;22;19985;-87
2023/01/26 08:53:09;;;;;;;;;;;;;;;;;;6243220;22;19950;-86
2023/01/26 08:55:35;;;;;;;;;;;;;;;;;;6270607;22;20355;-88
2023/01/26 08:58:01;;;;;;;;;;;;;;;;;;6244641;22;19941;-89
2023/01/26 09:00:27;;;;;;;;;;;;;;;;;;6242489;22;20318;-89
2023/01/26 09:02:53;;;;;;;;;;;;;;;;;;6273173;22;19918;-89
2023/01/26 09:05:19;;;;;;;;;;;;;;;;;;6244892;22;19981;-89
2023/01/26 09:07:45;;;;;;;;;;;;;;;;;;6271662;22;19922;-89
2023/01/26 09:10:11;;;;;;;;;;;;;;;;;;6266755;22;19997;-89
2023/01/26 09:12:37;;;;;;;;;;;;;;;;;;6242616;22;19919;-89
2023/01/26 09:15:03;;;;;;;;;;;;;;;;;;6242191;22;19949;-89
2023/01/26 09:17:29;;;;;;;;;;;;;;;;;;6241508;22;19919;-89
2023/01/26 09:19:55;;;;;;;;;;;;;;;;;;6268679;22;20327;-90
2023/01/26 09:22:21;;;;;;;;;;;;;;;;;;6244124;22;19986;-89
2023/01/26 09:24:47;;;;;;;;;;;;;;;;;;6269418;22;19946;-89
2023/01/26 09:27:13;;;;;;;;;;;;;;;;;;6243972;22;19915;-89
2023/01/26 09:29:39;;;;;;;;;;;;;;;;;;6271336;22;20283;-90
2023/01/26 09:32:04;;;;;;;;;;;;;;;;;;6247183;22;19922;-89
2023/01/26 09:34:33;;;;;;;;;;;;;;;;;;6245867;22;19925;-90
2023/01/26 09:36:59;;;;;;;;;;;;;;;;;;6246513;22;20316;-90
2023/01/26 09:39:25;;;;;;;;;;;;;;;;;;6244363;22;20378;-90
2023/01/26 09:41:51;;;;;;;;;;;;;;;;;;6271273;22;19918;-90
2023/01/26 09:44:17;;;;;;;;;;;;;;;;;;6244762;22;19922;-90
2023/01/26 09:46:43;;;;;;;;;;;;;;;;;;6247082;22;19918;-90
2023/01/26 09:49:10;;;;;;;;;;;;;;;;;;6243368;22;19918;-89
2023/01/26 09:51:36;;;;;;;;;;;;;;;;;;6245798;22;19926;-90
2023/01/26 09:54:02;;;;;;;;;;;;;;;;;;6268903;22;19919;-89
2023/01/26 09:56:28;;;;;;;;;;;;;;;;;;6268680;22;19919;-89
2023/01/26 09:58:54;;;;;;;;;;;;;;;;;;6271929;22;19988;-89
2023/01/26 10:01:23;;;;;;;;;;;;;;;;;;6243021;22;19961;-89
2023/01/26 10:03:49;;;;;;;;;;;;;;;;;;6260411;22;19915;-90
2023/01/26 10:06:16;;;;;;;;;;;;;;;;;;6269828;22;19919;-90
2023/01/26 10:08:42;;;;;;;;;;;;;;;;;;6272449;22;19918;-90
2023/01/26 10:11:08;;;;;;;;;;;;;;;;;;6270754;22;19923;-89
2023/01/26 10:13:34;;;;;;;;;;;;;;;;;;6246223;22;19994;-89
2023/01/26 10:16:00;;;;;;;;;;;;;;;;;;6245771;22;20292;-90
2023/01/26 10:18:26;;;;;;;;;;;;;;;;;;6268801;22;19918;-90
2023/01/26 10:20:52;;;;;;;;;;;;;;;;;;6245701;22;19954;-89
2023/01/26 10:23:18;;;;;;;;;;;;;;;;;;6269602;22;19926;-88
2023/01/26 10:25:47;;;;;;;;;;;;;;;;;;6272133;22;19919;-89
2023/01/26 10:28:13;;;;;;;;;;;;;;;;;;6244321;22;19946;-89
2023/01/26 10:30:40;;;;;;;;;;;;;;;;;;6247123;22;19919;-88
2023/01/26 10:33:06;;;;;;;;;;;;;;;;;;6271554;22;19989;-88
2023/01/26 10:35:31;;;;;;;;;;;;;;;;;;6272163;22;19933;-89
2023/01/26 10:37:59;;;;;;;;;;;;;;;;;;6279222;22;20212;-90
2023/01/26 10:40:25;;;;;;;;;;;;;;;;;;6269991;22;20874;-90
2023/01/26 10:42:51;;;;;;;;;;;;;;;;;;6244305;22;19915;-90
2023/01/26 10:45:17;;;;;;;;;;;;;;;;;;6266870;22;19926;-90
2023/01/26 10:47:43;;;;;;;;;;;;;;;;;;6241953;22;19915;-90
2023/01/26 10:50:09;;;;;;;;;;;;;;;;;;6268105;22;19926;-89
2023/01/26 10:52:35;;;;;;;;;;;;;;;;;;6244004;22;19919;-89
2023/01/26 10:55:01;;;;;;;;;;;;;;;;;;6270967;22;19919;-90
2023/01/26 10:57:27;;;;;;;;;;;;;;;;;;6269583;22;19922;-90
2023/01/26 10:59:53;;;;;;;;;;;;;;;;;;6271028;22;19946;-90
2023/01/26 11:02:19;;;;;;;;;;;;;;;;;;6269816;22;19919;-89
2023/01/26 11:04:45;;;;;;;;;;;;;;;;;;6270791;22;19919;-90
2023/01/26 11:07:10;;;;;;;;;;;;;;;;;;6243993;22;19946;-90
2023/01/26 11:09:36;;;;;;;;;;;;;;;;;;6247113;22;19919;-89
2023/01/26 11:12:03;;;;;;;;;;;;;;;;;;6270887;22;20385;-90
2023/01/26 11:14:29;;;;;;;;;;;;;;;;;;6267863;22;19988;-89
2023/01/26 11:16:55;;;;;;;;;;;;;;;;;;6246562;22;19973;-89
2023/01/26 11:19:22;;;;;;;;;;;;;;;;;;6240542;22;20017;-89
2023/01/26 11:21:48;;;;;;;;;;;;;;;;;;6271528;22;20246;-89
2023/01/26 11:24:16;;;;;;;;;;;;;;;;;;6268059;22;19994;-90
2023/01/26 11:26:42;;;;;;;;;;;;;;;;;;6247046;22;19915;-90
2023/01/26 11:29:08;;;;;;;;;;;;;;;;;;6243015;22;20318;-90
2023/01/26 11:31:34;;;;;;;;;;;;;;;;;;6269471;22;20248;-90
2023/01/26 11:34:00;;;;;;;;;;;;;;;;;;6270307;22;19938;-90
2023/01/26 11:36:26;;;;;;;;;;;;;;;;;;6242925;22;20280;-90
2023/01/26 11:38:52;;;;;;;;;;;;;;;;;;6245431;22;19922;-90
2023/01/26 11:41:18;;;;;;;;;;;;;;;;;;6269162;22;19925;-88
2023/01/26 11:43:44;;;;;;;;;;;;;;;;;;6267531;22;19923;-90
2023/01/26 11:46:10;;;;;;;;;;;;;;;;;;6242933;22;20282;-89
2023/01/26 11:48:36;;;;;;;;;;;;;;;;;;6243843;22;20251;-90
2023/01/26 11:51:02;;;;;;;;;;;;;;;;;;6245546;22;20362;-90
2023/01/26 11:53:28;;;;;;;;;;;;;;;;;;6293504;22;20388;-90
2023/01/26 11:55:53;;;;;;;;;;;;;;;;;;6243630;22;20328;-89
2023/01/26 11:58:19;;;;;;;;;;;;;;;;;;6244105;22;19919;-90
2023/01/26 12:00:45;;;;;;;;;;;;;;;;;;6246350;22;19921;-90
2023/01/26 12:03:11;;;;;;;;;;;;;;;;;;6241380;22;20352;-89
2023/01/26 12:05:37;;;;;;;;;;;;;;;;;;6247063;22;19919;-90
2023/01/26 12:08:03;;;;;;;;;;;;;;;;;;6246221;22;19964;-89
2023/01/26 12:10:29;;;;;;;;;;;;;;;;;;6269974;22;19923;-90
2023/01/26 12:12:58;;;;;;;;;;;;;;;;;;6269839;22;19918;-90
2023/01/26 12:15:26;;;;;;;;;;;;;;;;;;6268929;22;20387;-90
2023/01/26 12:17:52;;;;;;;;;;;;;;;;;;6267703;22;20255;-90
2023/01/26 12:20:18;;;;;;;;;;;;;;;;;;6267026;22;19990;-90
2023/01/26 12:22:44;;;;;;;;;;;;;;;;;;6268366;22;19926;-89
2023/01/26 12:25:10;;;;;;;;;;;;;;;;;;6267530;22;19927;-90
2023/01/26 12:27:36;;;;;;;;;;;;;;;;;;6244093;22;19958;-90
2023/01/26 12:30:01;;;;;;;;;;;;;;;;;;6270503;22;20320;-90
2023/01/26 12:32:27;;;;;;;;;;;;;;;;;;6240950;22;20289;-90
2023/01/26 12:34:53;;;;;;;;;;;;;;;;;;6268357;22;19934;-90
2023/01/26 12:37:19;;;;;;;;;;;;;;;;;;6267454;22;19981;-89
2023/01/26 12:39:45;;;;;;;;;;;;;;;;;;6268979;22;20313;-90
2023/01/26 12:42:11;;;;;;;;;;;;;;;;;;6266672;22;19986;-90
2023/01/26 12:44:37;;;;;;;;;;;;;;;;;;6244187;22;20315;-90
2023/01/26 12:47:03;;;;;;;;;;;;;;;;;;6271350;22;20420;-90
2023/01/26 12:49:29;;;;;;;;;;;;;;;;;;6241635;22;19929;-91
2023/01/26 12:51:55;;;;;;;;;;;;;;;;;;6244642;22;19993;-90
2023/01/26 12:54:21;;;;;;;;;;;;;;;;;;6266908;22;19918;-90
2023/01/26 12:56:47;;;;;;;;;;;;;;;;;;6274375;22;19922;-90
2023/01/26 12:59:13;;;;;;;;;;;;;;;;;;6266366;22;20339;-90
2023/01/26 13:01:39;;;;;;;;;;;;;;;;;;6273258;22;19946;-90
2023/01/26 13:04:08;;;;;;;;;;;;;;;;;;6273113;22;19918;-90
2023/01/26 13:06:34;;;;;;;;;;;;;;;;;;6273583;22;19946;-90
2023/01/26 13:09:00;;;;;;;;;;;;;;;;;;6273016;22;19915;-90
2023/01/26 13:11:26;;;;;;;;;;;;;;;;;;6242942;22;20224;-89
2023/01/26 13:13:52;;;;;;;;;;;;;;;;;;6272188;22;19922;-90
2023/01/26 13:16:18;;;;;;;;;;;;;;;;;;6269176;22;19914;-90
2023/01/26 13:18:44;;;;;;;;;;;;;;;;;;6269983;22;19967;-89
2023/01/26 13:21:10;;;;;;;;;;;;;;;;;;6242582;22;19925;-89
2023/01/26 13:23:36;;;;;;;;;;;;;;;;;;6271958;22;19990;-90
2023/01/26 13:26:01;;;;;;;;;;;;;;;;;;6245448;22;19919;-90
2023/01/26 13:28:28;;;;;;;;;;;;;;;;;;6268268;22;19919;-90
2023/01/26 13:30:53;;;;;;;;;;;;;;;;;;6246581;22;19923;-90
2023/01/26 13:33:19;;;;;;;;;;;;;;;;;;6269839;22;19981;-89
2023/01/26 13:35:45;;;;;;;;;;;;;;;;;;6271732;22;19923;-88
2023/01/26 13:38:11;;;;;;;;;;;;;;;;;;6242275;22;20314;-89
2023/01/26 13:40:37;;;;;;;;;;;;;;;;;;6270633;22;19919;-88
2023/01/26 13:43:03;;;;;;;;;;;;;;;;;;6271561;22;19946;-90
2023/01/26 13:45:29;;;;;;;;;;;;;;;;;;6244474;22;19926;-90
2023/01/26 13:47:55;;;;;;;;;;;;;;;;;;6244066;22;19919;-90
2023/01/26 13:50:21;;;;;;;;;;;;;;;;;;6268279;22;20252;-90
2023/01/26 13:52:47;;;;;;;;;;;;;;;;;;6273843;22;19919;-90
2023/01/26 13:55:13;;;;;;;;;;;;;;;;;;6270182;22;19915;-90
2023/01/26 13:57:39;;;;;;;;;;;;;;;;;;6270736;22;20417;-90
2023/01/26 14:00:08;;;;;;;;;;;;;;;;;;6269181;22;20419;-89
2023/01/26 14:02:34;;;;;;;;;;;;;;;;;;6271125;22;19986;-89
2023/01/26 14:05:00;;;;;;;;;;;;;;;;;;6269437;22;19985;-90
2023/01/26 14:07:26;;;;;;;;;;;;;;;;;;6242419;22;19919;-93
2023/01/26 14:09:52;;;;;;;;;;;;;;;;;;6272655;22;19919;-90
2023/01/26 14:12:20;;;;;;;;;;;;;;;;;;6266989;22;19919;-90
2023/01/26 14:14:49;;;;;;;;;;;;;;;;;;6243288;22;19950;-90
2023/01/26 14:17:15;;;;;;;;;;;;;;;;;;6243584;22;19915;-90
2023/01/26 14:19:41;;;;;;;;;;;;;;;;;;6245203;22;19919;-90
2023/01/26 14:22:07;;;;;;;;;;;;;;;;;;6243924;22;19945;-90
2023/01/26 14:24:33;;;;;;;;;;;;;;;;;;6270818;22;19918;-89
2023/01/26 14:26:59;;;;;;;;;;;;;;;;;;6272697;22;19929;-90
2023/01/26 14:29:25;;;;;;;;;;;;;;;;;;6268969;22;20309;-89
2023/01/26 14:31:51;;;;;;;;;;;;;;;;;;6268220;22;19919;-89
2023/01/26 14:34:17;;;;;;;;;;;;;;;;;;6260647;22;20167;-89
2023/01/26 14:36:43;;;;;;;;;;;;;;;;;;6242908;22;20318;-89
2023/01/26 14:39:09;;;;;;;;;;;;;;;;;;6243664;22;19918;-88
2023/01/26 14:41:36;;;;;;;;;;;;;;;;;;6244686;22;20385;-90
2023/01/26 14:44:04;;;;;;;;;;;;;;;;;;6242375;22;19919;-89
2023/01/26 14:46:30;;;;;;;;;;;;;;;;;;6262881;22;20374;-88
2023/01/26 14:48:56;;;;;;;;;;;;;;;;;;6239626;22;19922;-89
2023/01/26 14:51:22;;;;;;;;;;;;;;;;;;6239751;22;19923;-89
2023/01/26 14:53:48;;;;;;;;;;;;;;;;;;6241314;22;19969;-91
2023/01/26 14:56:14;;;;;;;;;;;;;;;;;;6233580;22;19974;-90
2023/01/26 14:58:40;;;;;;;;;;;;;;;;;;6236773;22;19921;-90
2023/01/26 15:01:06;;;;;;;;;;;;;;;;;;6262624;22;20247;-89
2023/01/26 15:03:32;;;;;;;;;;;;;;;;;;6243716;22;19919;-89
2023/01/26 15:05:58;;;;;;;;;;;;;;;;;;6269698;22;19964;-92
2023/01/26 15:08:27;;;;;;;;;;;;;;;;;;6240064;22;19929;-90
2023/01/26 15:10:54;;;;;;;;;;;;;;;;;;6268667;22;19977;-90
2023/01/26 15:13:23;;;;;;;;;;;;;;;;;;6241827;22;19927;-89
2023/01/26 15:15:49;;;;;;;;;;;;;;;;;;6231293;22;20430;-88
2023/01/26 15:18:15;;;;;;;;;;;;;;;;;;6265844;22;20318;-88
2023/01/26 15:20:41;;;;;;;;;;;;;;;;;;6269968;22;19953;-89
2023/01/26 15:23:07;;;;;;;;;;;;;;;;;;6240207;22;20219;-88
2023/01/26 15:25:33;;;;;;;;;;;;;;;;;;6269412;22;19918;-89
2023/01/26 15:27:59;;;;;;;;;;;;;;;;;;6270234;22;19919;-88
2023/01/26 15:30:25;;;;;;;;;;;;;;;;;;6266193;22;19926;-88
2023/01/26 15:32:51;;;;;;;;;;;;;;;;;;6242594;22;20445;-89
2023/01/26 15:35:17;;;;;;;;;;;;;;;;;;6240340;22;19922;-89
2023/01/26 15:37:43;;;;;;;;;;;;;;;;;;6268804;22;19950;-90
2023/01/26 15:40:09;;;;;;;;;;;;;;;;;;6242288;22;20289;-89
2023/01/26 15:42:35;;;;;;;;;;;;;;;;;;6270411;22;19950;-90
2023/01/26 15:45:01;;;;;;;;;;;;;;;;;;6244471;22;20361;-90
2023/01/26 15:47:27;;;;;;;;;;;;;;;;;;6267157;22;20340;-90
2023/01/26 15:49:53;;;;;;;;;;;;;;;;;;6244473;22;20300;-90
2023/01/26 15:52:19;;;;;;;;;;;;;;;;;;6240663;22;19914;-89
2023/01/26 15:54:45;;;;;;;;;;;;;;;;;;6242641;22;19968;-90
2023/01/26 15:57:11;;;;;;;;;;;;;;;;;;6234104;22;19922;-88
2023/01/26 15:59:37;;;;;;;;;;;;;;;;;;6238581;22;19918;-89
2023/01/26 16:02:03;;;;;;;;;;;;;;;;;;6240454;22;19997;-88
2023/01/26 16:04:31;;;;;;;;;;;;;;;;;;6262887;22;19958;-89
2023/01/26 16:07:03;;;;;;;;;;;;;;;;;;6243533;22;19926;-89
2023/01/26 16:09:39;;;;;;;;;;;;;;;;;;6238156;22;19941;-90
2023/01/26 16:12:05;;;;;;;;;;;;;;;;;;6238968;22;19919;-89
2023/01/26 16:14:33;;;;;;;;;;;;;;;;;;6240427;22;19919;-89
2023/01/26 16:16:59;;;;;;;;;;;;;;;;;;6237399;22;20349;-90
2023/01/26 16:19:25;;;;;;;;;;;;;;;;;;6233950;22;20328;-88
2023/01/26 16:21:51;;;;;;;;;;;;;;;;;;6235022;22;19919;-89
2023/01/26 16:24:17;;;;;;;;;;;;;;;;;;6235584;22;19919;-88
2023/01/26 16:26:43;;;;;;;;;;;;;;;;;;6237739;22;20005;-88
2023/01/26 16:29:09;;;;;;;;;;;;;;;;;;6261250;22;19997;-89
2023/01/26 16:31:35;;;;;;;;;;;;;;;;;;6263406;22;20010;-88
2023/01/26 16:34:01;;;;;;;;;;;;;;;;;;6260594;22;19945;-88
2023/01/26 16:36:27;;;;;;;;;;;;;;;;;;6263140;22;19923;-89
2023/01/26 16:38:53;;;;;;;;;;;;;;;;;;6267921;22;19915;-88
2023/01/26 16:41:19;;;;;;;;;;;;;;;;;;6265567;22;19986;-89
2023/01/26 16:43:45;;;;;;;;;;;;;;;;;;6268385;22;20323;-88
2023/01/26 16:46:11;;;;;;;;;;;;;;;;;;6264114;22;19918;-88
2023/01/26 16:48:43;;;;;;;;;;;;;;;;;;6265612;22;20568;-88
2023/01/26 16:51:15;;;;;;;;;;;;;;;;;;6236566;22;19922;-89
2023/01/26 16:53:41;;;;;;;;;;;;;;;;;;6263687;22;20332;-89
2023/01/26 16:56:07;;;;;;;;;;;;;;;;;;6259890;22;19918;-89
2023/01/26 16:58:32;;;;;;;;;;;;;;;;;;6260026;22;20024;-89
2023/01/26 17:00:58;;;;;;;;;;;;;;;;;;6283620;22;19930;-89
2023/01/26 17:03:25;;;;;;;;;;;;;;;;;;6262515;22;19919;-89
2023/01/26 17:05:51;;;;;;;;;;;;;;;;;;6241408;22;19919;-89
2023/01/26 17:08:17;;;;;;;;;;;;;;;;;;6234635;22;19919;-90
2023/01/26 17:10:43;;;;;;;;;;;;;;;;;;6238297;22;19922;-88
2023/01/26 17:13:09;;;;;;;;;;;;;;;;;;6260793;22;19919;-88
2023/01/26 17:15:35;;;;;;;;;;;;;;;;;;6267446;22;20251;-88
2023/01/26 17:18:00;;;;;;;;;;;;;;;;;;6265900;22;19926;-88
2023/01/26 17:20:26;;;;;;;;;;;;;;;;;;6240329;22;19985;-88